Time;durP1;ratioP1;P1;durP2;ratioP2;P2;SDS_P1;SDS_P2;PMS_P1;PMS_P2;Temp;Humidity;BMP_temperature;BMP_pressure;BME280_temperature;BME280_humidity;BME280_pressure;Samples;Min_cycle;Max_cycle;Signal;HPM_P1;HPM_P2
2022/07/26 00:02:18;;;;;;;3.87;1.80;;;26.80;51.70;;;;;;7351984;19;20372;-54
2022/07/26 00:04:47;;;;;;;4.60;1.67;;;26.80;52.00;;;;;;7350446;19;20364;-53
2022/07/26 00:07:17;;;;;;;3.13;1.70;;;26.70;52.70;;;;;;7355521;19;21065;-54
2022/07/26 00:09:47;;;;;;;2.17;1.43;;;26.70;52.30;;;;;;7348831;19;20368;-54
2022/07/26 00:12:17;;;;;;;4.80;1.47;;;26.70;52.20;;;;;;7337653;19;20376;-53
2022/07/26 00:14:46;;;;;;;2.23;1.57;;;26.70;52.20;;;;;;7337686;19;20433;-53
2022/07/26 00:17:18;;;;;;;3.43;1.53;;;26.60;52.40;;;;;;7354723;19;21989;-53
2022/07/26 00:19:48;;;;;;;3.07;1.50;;;26.60;52.70;;;;;;7352379;19;20405;-55
2022/07/26 00:24:59;;;;;;;2.20;1.60;;;26.70;52.70;;;;;;7347775;19;21631;-54
2022/07/26 00:27:29;;;;;;;2.30;1.50;;;26.70;52.70;;;;;;7346371;19;20513;-53
2022/07/26 00:29:58;;;;;;;2.33;1.60;;;26.70;52.70;;;;;;7352303;19;20380;-53
2022/07/26 00:32:30;;;;;;;2.87;1.50;;;26.80;52.70;;;;;;7350421;19;20381;-53
2022/07/26 00:35:00;;;;;;;3.10;1.60;;;26.90;52.30;;;;;;7357532;19;20921;-54
2022/07/26 00:37:30;;;;;;;5.10;2.00;;;27.00;52.30;;;;;;7351272;19;20372;-53
2022/07/26 00:39:59;;;;;;;4.00;2.03;;;27.10;52.20;;;;;;7350005;19;20461;-54
2022/07/26 00:42:31;;;;;;;5.57;2.73;;;27.00;52.10;;;;;;7331725;19;20451;-54
2022/07/26 00:45:01;;;;;;;2.57;1.80;;;26.90;52.40;;;;;;7362634;19;20956;-54
2022/07/26 00:47:34;;;;;;;4.20;2.00;;;26.90;52.60;;;;;;7355048;19;20986;-53
2022/07/26 00:50:04;;;;;;;4.13;1.93;;;26.90;52.70;;;;;;7364346;19;20375;-53
2022/07/26 00:52:33;;;;;;;3.47;1.87;;;26.90;52.80;;;;;;7358956;19;20963;-53
2022/07/26 00:55:08;;;;;;;3.00;1.90;;;26.90;52.90;;;;;;7359637;19;20908;-53
2022/07/26 00:57:38;;;;;;;2.40;1.63;;;26.80;53.00;;;;;;7358396;19;20386;-53
2022/07/26 01:00:10;;;;;;;2.90;1.97;;;26.90;53.20;;;;;;7360423;19;21045;-54
2022/07/26 01:02:42;;;;;;;4.60;2.30;;;26.80;53.20;;;;;;7367011;19;20727;-53
2022/07/26 01:05:12;;;;;;;9.53;2.20;;;26.70;53.40;;;;;;7352568;19;20414;-53
2022/07/26 01:07:42;;;;;;;2.13;1.40;;;26.70;53.70;;;;;;7343510;19;21323;-53
2022/07/26 01:10:13;;;;;;;2.60;1.37;;;26.70;54.00;;;;;;7341914;19;20376;-53
2022/07/26 01:12:44;;;;;;;3.17;1.57;;;26.60;54.00;;;;;;7353098;19;20418;-53
2022/07/26 01:15:15;;;;;;;2.70;1.80;;;26.60;54.50;;;;;;7351373;19;20368;-53
2022/07/26 01:17:48;;;;;;;1.80;1.20;;;26.50;55.50;;;;;;7357804;19;20477;-54
2022/07/26 01:20:18;;;;;;;1.50;1.17;;;26.30;56.30;;;;;;7354012;19;20379;-54
2022/07/26 01:22:50;;;;;;;2.07;1.20;;;26.00;57.80;;;;;;7350928;19;20364;-53
2022/07/26 01:25:31;;;;;;;2.03;1.53;;;25.80;59.10;;;;;;7348922;19;20364;-53
2022/07/26 01:28:00;;;;;;;2.40;1.13;;;25.60;61.20;;;;;;7352625;19;20402;-53
2022/07/26 01:30:31;;;;;;;1.30;1.20;;;25.40;62.60;;;;;;7357468;19;20976;-53
2022/07/26 01:33:00;;;;;;;1.30;1.20;;;25.30;64.10;;;;;;7366384;19;20472;-53
2022/07/26 01:35:30;;;;;;;2.30;1.37;;;25.30;64.40;;;;;;7341612;19;20980;-54
2022/07/26 01:38:02;;;;;;;2.43;1.30;;;25.20;65.40;;;;;;7351190;19;20376;-53
2022/07/26 01:40:32;;;;;;;2.00;1.00;;;25.30;66.30;;;;;;7351823;19;20412;-48
2022/07/26 01:43:04;;;;;;;2.10;1.10;;;25.40;67.10;;;;;;7360105;19;21007;-48
2022/07/26 01:45:33;;;;;;;1.67;1.30;;;25.50;67.40;;;;;;7362659;19;20401;-48
2022/07/26 01:48:03;;;;;;;5.53;1.50;;;25.30;67.60;;;;;;7356042;19;20364;-48
2022/07/26 01:50:32;;;;;;;2.57;1.23;;;25.30;67.10;;;;;;7357172;19;20933;-48
2022/07/26 01:53:04;;;;;;;1.30;1.20;;;25.40;67.40;;;;;;7351835;19;21083;-48
2022/07/26 01:55:34;;;;;;;1.80;1.07;;;25.60;67.30;;;;;;7355400;19;20416;-48
2022/07/26 01:58:03;;;;;;;2.07;1.20;;;25.40;68.10;;;;;;7355557;19;21624;-48
2022/07/26 02:00:34;;;;;;;2.50;1.60;;;25.30;68.20;;;;;;7364015;19;20503;-48
2022/07/26 02:03:03;;;;;;;2.27;1.50;;;25.30;68.50;;;;;;7354901;19;20368;-48
2022/07/26 02:05:33;;;;;;;2.47;1.43;;;25.00;69.30;;;;;;7357943;19;20372;-48
2022/07/26 02:08:05;;;;;;;2.30;1.30;;;25.20;68.20;;;;;;7328948;19;20388;-48
2022/07/26 02:13:20;;;;;;;1.90;1.40;;;25.70;64.90;;;;;;7360285;19;20384;-48
2022/07/26 02:15:49;;;;;;;3.30;1.23;;;25.90;64.10;;;;;;7357942;19;20377;-48
2022/07/26 02:18:19;;;;;;;1.50;1.40;;;26.00;63.60;;;;;;7352587;19;20415;-48
2022/07/26 02:20:52;;;;;;;1.80;1.17;;;25.80;63.90;;;;;;7361221;19;20436;-48
2022/07/26 02:23:25;;;;;;;2.73;1.17;;;25.80;63.80;;;;;;7354994;19;20369;-48
2022/07/26 02:25:55;;;;;;;2.40;2.03;;;25.80;63.20;;;;;;7358068;19;20874;-48
2022/07/26 02:28:27;;;;;;;2.20;1.43;;;25.70;62.70;;;;;;7358196;19;21040;-48
2022/07/26 02:30:57;;;;;;;1.73;1.37;;;25.60;62.90;;;;;;7355149;19;20373;-48
2022/07/26 02:33:26;;;;;;;1.33;1.03;;;25.50;63.40;;;;;;7351686;19;20376;-48
2022/07/26 02:35:56;;;;;;;1.73;1.30;;;25.50;64.20;;;;;;7363341;19;20380;-48
2022/07/26 02:38:30;;;;;;;3.27;1.40;;;25.30;65.10;;;;;;7386597;19;20725;-48
2022/07/26 02:41:00;;;;;;;2.47;1.30;;;25.20;66.00;;;;;;7373315;19;20364;-48
2022/07/26 02:43:31;;;;;;;2.53;1.17;;;25.20;66.30;;;;;;7348287;19;20828;-48
2022/07/26 02:46:01;;;;;;;1.47;1.17;;;25.30;65.80;;;;;;7358279;19;20379;-49
2022/07/26 02:48:30;;;;;;;1.60;0.87;;;25.40;65.40;;;;;;7349875;19;20368;-48
2022/07/26 02:51:00;;;;;;;2.83;1.13;;;25.40;65.80;;;;;;7386113;19;20380;-48
2022/07/26 02:53:32;;;;;;;1.20;1.07;;;25.50;65.50;;;;;;7385029;19;20382;-48
2022/07/26 02:56:02;;;;;;;2.27;1.70;;;25.50;65.40;;;;;;7358129;19;20372;-48
2022/07/26 02:58:34;;;;;;;1.37;1.10;;;25.40;65.40;;;;;;7353252;19;21029;-48
2022/07/26 03:01:03;;;;;;;1.77;1.20;;;25.30;66.00;;;;;;7347400;19;20436;-48
2022/07/26 03:03:33;;;;;;;2.70;1.60;;;25.30;65.70;;;;;;7350855;19;21026;-48
2022/07/26 03:06:05;;;;;;;1.80;1.37;;;25.30;65.70;;;;;;7355166;19;20384;-48
2022/07/26 03:08:37;;;;;;;2.53;1.10;;;25.50;65.20;;;;;;7349194;19;21039;-48
2022/07/26 03:11:07;;;;;;;1.60;1.10;;;25.60;64.80;;;;;;7353258;19;20991;-53
2022/07/26 03:13:36;;;;;;;2.63;1.23;;;25.40;64.90;;;;;;7353181;19;20376;-53
2022/07/26 03:16:09;;;;;;;1.77;1.17;;;25.40;65.00;;;;;;7355881;19;20376;-53
2022/07/26 03:18:38;;;;;;;2.53;1.50;;;25.40;65.30;;;;;;7351624;19;20364;-53
2022/07/26 03:21:08;;;;;;;1.80;1.30;;;25.40;65.00;;;;;;7356148;19;20364;-53
2022/07/26 03:23:41;;;;;;;1.10;1.00;;;25.20;65.40;;;;;;7353750;19;20364;-52
2022/07/26 03:26:10;;;;;;;2.63;1.20;;;25.10;65.70;;;;;;7351211;19;20682;-53
2022/07/26 03:28:43;;;;;;;1.70;1.00;;;25.30;65.70;;;;;;7349120;19;20395;-53
2022/07/26 03:31:12;;;;;;;1.20;1.10;;;25.40;65.00;;;;;;7346784;19;21565;-54
2022/07/26 03:33:42;;;;;;;1.37;1.20;;;25.30;65.10;;;;;;7355880;19;20377;-54
2022/07/26 03:36:12;;;;;;;1.87;1.20;;;25.30;65.70;;;;;;7347495;19;20892;-53
2022/07/26 03:38:44;;;;;;;1.20;1.10;;;25.30;65.20;;;;;;7357156;19;20402;-53
2022/07/26 03:41:14;;;;;;;1.77;1.37;;;25.20;65.40;;;;;;7346859;19;20416;-54
2022/07/26 03:43:43;;;;;;;3.50;1.17;;;25.20;65.60;;;;;;7353600;19;20380;-52
2022/07/26 03:46:13;;;;;;;3.33;1.10;;;25.10;66.00;;;;;;7343390;19;20393;-53
2022/07/26 03:48:42;;;;;;;1.90;1.10;;;24.90;67.20;;;;;;7328782;19;20433;-54
2022/07/26 03:51:12;;;;;;;1.93;1.37;;;24.80;67.50;;;;;;7357402;19;20379;-53
2022/07/26 03:53:44;;;;;;;1.27;1.00;;;24.70;67.60;;;;;;7345744;19;20376;-54
2022/07/26 03:58:55;;;;;;;2.57;1.43;;;24.80;67.90;;;;;;7345323;19;20728;-54
2022/07/26 04:01:25;;;;;;;2.33;1.47;;;24.90;67.40;;;;;;7350405;19;20439;-54
2022/07/26 04:03:54;;;;;;;1.50;1.40;;;24.90;66.80;;;;;;7348653;19;20375;-53
2022/07/26 04:06:24;;;;;;;1.37;1.17;;;25.00;66.80;;;;;;7352354;19;20388;-54
2022/07/26 04:08:57;;;;;;;3.73;1.70;;;24.90;66.80;;;;;;7349022;19;20391;-53
2022/07/26 04:11:26;;;;;;;1.53;1.30;;;24.80;67.30;;;;;;7355415;19;20376;-48
2022/07/26 04:13:56;;;;;;;1.80;1.60;;;24.80;67.50;;;;;;7359419;19;20404;-48
2022/07/26 04:16:25;;;;;;;1.77;1.40;;;24.90;67.30;;;;;;7351388;19;20439;-48
2022/07/26 04:18:55;;;;;;;1.40;1.30;;;24.90;67.40;;;;;;7361634;19;20965;-48
2022/07/26 04:21:25;;;;;;;1.90;1.30;;;24.80;67.50;;;;;;7350582;19;20392;-48
2022/07/26 04:23:57;;;;;;;3.43;1.30;;;24.60;68.00;;;;;;7366491;19;20380;-48
2022/07/26 04:26:28;;;;;;;1.73;1.43;;;24.60;68.00;;;;;;7348744;19;20997;-48
2022/07/26 04:28:58;;;;;;;2.43;1.53;;;24.50;68.70;;;;;;7358053;19;20463;-48
2022/07/26 04:31:27;;;;;;;2.13;1.30;;;24.50;68.90;;;;;;7354732;19;21002;-48
2022/07/26 04:33:57;;;;;;;3.73;2.10;;;24.50;68.90;;;;;;7356266;19;20380;-48
2022/07/26 04:36:26;;;;;;;3.97;2.20;;;24.50;69.00;;;;;;7353471;19;21032;-48
2022/07/26 04:38:58;;;;;;;4.13;2.27;;;24.60;68.70;;;;;;7352112;19;20419;-48
2022/07/26 04:41:28;;;;;;;2.00;1.50;;;24.60;68.70;;;;;;7358325;19;20405;-48
2022/07/26 04:43:57;;;;;;;2.17;1.53;;;24.50;68.90;;;;;;7351312;19;20376;-48
2022/07/26 04:46:27;;;;;;;3.07;1.70;;;24.50;69.20;;;;;;7359142;19;20388;-48
2022/07/26 04:48:56;;;;;;;5.93;4.83;;;24.30;70.20;;;;;;7345566;19;20389;-48
2022/07/26 04:51:26;;;;;;;1.73;1.63;;;24.40;70.20;;;;;;7354601;19;20389;-48
2022/07/26 04:53:58;;;;;;;1.70;1.60;;;24.40;69.70;;;;;;7359764;19;20376;-49
2022/07/26 04:56:28;;;;;;;2.20;1.53;;;24.30;70.10;;;;;;7360118;19;20408;-48
2022/07/26 04:58:57;;;;;;;3.03;1.83;;;24.30;70.40;;;;;;7358934;19;20376;-48
2022/07/26 05:01:29;;;;;;;5.93;4.13;;;24.30;70.40;;;;;;7364507;19;20440;-48
2022/07/26 05:03:58;;;;;;;7.83;5.03;;;24.40;70.00;;;;;;7360218;19;20902;-48
2022/07/26 05:06:28;;;;;;;3.40;2.27;;;24.50;69.30;;;;;;7353407;19;20382;-48
2022/07/26 05:09:00;;;;;;;5.33;2.10;;;24.60;69.20;;;;;;7362999;19;20743;-48
2022/07/26 05:11:30;;;;;;;3.50;2.23;;;24.60;69.10;;;;;;7357937;19;21396;-48
2022/07/26 05:13:59;;;;;;;13.67;10.97;;;24.60;69.30;;;;;;7355960;19;20376;-48
2022/07/26 05:16:29;;;;;;;11.57;4.20;;;24.60;69.00;;;;;;7357101;19;20403;-48
2022/07/26 05:18:58;;;;;;;4.40;3.43;;;24.60;69.20;;;;;;7353756;19;20391;-48
2022/07/26 05:21:29;;;;;;;5.33;4.50;;;24.50;69.20;;;;;;7355361;19;20792;-48
2022/07/26 05:24:01;;;;;;;6.43;5.20;;;24.60;69.10;;;;;;7350064;19;20386;-48
2022/07/26 05:26:33;;;;;;;9.20;5.80;;;24.70;69.20;;;;;;7354362;19;20395;-48
2022/07/26 05:29:02;;;;;;;3.37;2.90;;;24.70;68.60;;;;;;7358076;19;20387;-48
2022/07/26 05:31:32;;;;;;;7.80;5.37;;;24.80;68.40;;;;;;7358396;19;20396;-48
2022/07/26 05:34:23;;;;;;;8.03;2.23;;;24.80;68.50;;;;;;7348388;19;20529;-48
2022/07/26 05:36:53;;;;;;;3.40;2.50;;;24.80;68.10;;;;;;7355287;19;20376;-48
2022/07/26 05:39:25;;;;;;;2.93;1.80;;;24.80;68.60;;;;;;7357924;19;21842;-48
2022/07/26 05:41:55;;;;;;;2.73;2.07;;;25.00;67.60;;;;;;7355984;19;20368;-48
2022/07/26 05:44:24;;;;;;;3.83;1.97;;;25.00;67.40;;;;;;7353176;19;20391;-48
2022/07/26 05:46:54;;;;;;;2.83;1.90;;;25.00;67.30;;;;;;7358309;19;20396;-47
2022/07/26 05:49:24;;;;;;;2.60;1.73;;;24.80;68.30;;;;;;7355460;19;20364;-48
2022/07/26 05:51:54;;;;;;;3.77;2.07;;;24.90;67.60;;;;;;7346819;19;20376;-47
2022/07/26 05:54:26;;;;;;;3.17;2.30;;;25.10;67.10;;;;;;7357460;19;20372;-48
2022/07/26 05:56:56;;;;;;;3.03;2.00;;;25.10;67.40;;;;;;7359715;19;20499;-48
2022/07/26 05:59:25;;;;;;;2.40;2.20;;;25.00;67.10;;;;;;7357642;19;20464;-47
2022/07/26 06:01:57;;;;;;;6.30;2.60;;;24.90;67.50;;;;;;7358888;19;20756;-47
2022/07/26 06:04:27;;;;;;;3.47;1.90;;;24.90;67.90;;;;;;7359282;19;20380;-47
2022/07/26 06:06:57;;;;;;;3.07;2.33;;;24.90;67.90;;;;;;7352714;19;20380;-48
2022/07/26 06:09:29;;;;;;;2.37;2.07;;;24.90;67.00;;;;;;7354006;19;20380;-48
2022/07/26 06:11:59;;;;;;;2.87;1.73;;;25.00;67.30;;;;;;7364769;19;20407;-47
2022/07/26 06:14:29;;;;;;;7.27;2.43;;;25.10;66.20;;;;;;7357122;19;20372;-47
2022/07/26 06:16:58;;;;;;;3.20;2.30;;;25.10;65.90;;;;;;7359533;19;20376;-48
2022/07/26 06:19:27;;;;;;;3.40;2.27;;;25.30;64.50;;;;;;7353368;19;20372;-48
2022/07/26 06:21:57;;;;;;;4.80;1.60;;;25.40;63.20;;;;;;7360915;19;20377;-47
2022/07/26 06:24:29;;;;;;;3.53;2.03;;;25.50;62.20;;;;;;7359464;19;20388;-48
2022/07/26 06:26:59;;;;;;;2.20;1.97;;;25.70;59.20;;;;;;7357429;19;20467;-48
2022/07/26 06:29:29;;;;;;;3.23;1.60;;;25.60;58.50;;;;;;7351468;19;20380;-48
2022/07/26 06:31:58;;;;;;;4.23;2.13;;;25.60;57.60;;;;;;7356806;19;21183;-47
2022/07/26 06:34:28;;;;;;;3.00;1.90;;;25.60;57.50;;;;;;7353992;19;20724;-48
2022/07/26 06:36:57;;;;;;;3.93;3.53;;;25.80;57.30;;;;;;7352989;19;20376;-48
2022/07/26 06:39:31;;;;;;;3.63;2.20;;;26.00;56.30;;;;;;7370369;19;20372;-48
2022/07/26 06:42:00;;;;;;;3.90;2.33;;;26.30;55.60;;;;;;7354065;19;20376;-48
2022/07/26 06:44:31;;;;;;;2.90;2.60;;;26.30;54.20;;;;;;7361892;19;20464;-47
2022/07/26 06:47:01;;;;;;;4.53;1.83;;;26.30;54.40;;;;;;7354867;19;20397;-48
2022/07/26 06:49:30;;;;;;;2.03;1.40;;;26.40;54.20;;;;;;7362768;19;20914;-52
2022/07/26 06:52:00;;;;;;;5.17;1.90;;;26.50;53.80;;;;;;7366111;19;20378;-52
2022/07/26 06:54:32;;;;;;;4.67;2.10;;;26.50;53.80;;;;;;7356262;19;21069;-53
2022/07/26 06:57:02;;;;;;;2.80;1.67;;;26.40;51.80;;;;;;7356628;19;20368;-54
2022/07/26 06:59:31;;;;;;;2.80;1.70;;;26.40;51.90;;;;;;7355132;19;20416;-52
2022/07/26 07:02:05;;;;;;;3.37;1.20;;;26.40;51.80;;;;;;7359142;19;20460;-53
2022/07/26 07:04:35;;;;;;;3.10;1.30;;;26.40;51.90;;;;;;7387444;19;20405;-52
2022/07/26 07:07:05;;;;;;;1.83;1.10;;;26.50;50.90;;;;;;7385717;19;20505;-53
2022/07/26 07:09:40;;;;;;;4.70;1.60;;;26.60;49.80;;;;;;7379023;19;20733;-54
2022/07/26 07:12:10;;;;;;;4.40;1.37;;;26.70;49.50;;;;;;7381873;19;21115;-53
2022/07/26 07:14:39;;;;;;;1.10;1.00;;;26.80;48.70;;;;;;7381782;19;20372;-53
2022/07/26 07:17:09;;;;;;;1.20;1.10;;;26.80;48.50;;;;;;7383331;19;20371;-53
2022/07/26 07:19:40;;;;;;;4.20;1.40;;;26.90;48.70;;;;;;7383211;19;20380;-53
2022/07/26 07:22:10;;;;;;;2.93;1.57;;;26.90;48.00;;;;;;7380021;19;20401;-53
2022/07/26 07:24:43;;;;;;;1.37;1.10;;;27.10;48.00;;;;;;7379299;19;20753;-54
2022/07/26 07:27:13;;;;;;;3.47;1.30;;;27.20;48.10;;;;;;7378531;19;20387;-53
2022/07/26 07:29:42;;;;;;;2.17;1.10;;;27.20;47.80;;;;;;7381780;19;20416;-52
2022/07/26 07:32:12;;;;;;;1.00;0.90;;;27.20;47.80;;;;;;7380433;19;20472;-52
2022/07/26 07:34:42;;;;;;;3.40;1.37;;;27.40;47.90;;;;;;7382271;19;20379;-53
2022/07/26 07:37:11;;;;;;;1.60;0.90;;;27.40;47.20;;;;;;7383730;19;20768;-53
2022/07/26 07:39:43;;;;;;;2.00;1.10;;;27.50;47.60;;;;;;7382428;19;20825;-53
2022/07/26 07:42:13;;;;;;;2.00;1.20;;;27.60;46.60;;;;;;7382071;19;20455;-53
2022/07/26 07:44:42;;;;;;;3.67;1.37;;;27.70;46.50;;;;;;7380674;19;20734;-52
2022/07/26 07:47:12;;;;;;;1.53;1.00;;;27.90;46.50;;;;;;7379066;19;20379;-52
2022/07/26 07:49:44;;;;;;;3.00;1.13;;;28.00;46.20;;;;;;7379570;19;20387;-52
2022/07/26 07:52:14;;;;;;;7.40;1.63;;;28.00;45.70;;;;;;7384671;19;20372;-53
2022/07/26 07:54:48;;;;;;;6.63;1.57;;;28.00;45.40;;;;;;7379603;19;20373;-53
2022/07/26 07:57:19;;;;;;;2.20;1.30;;;28.00;45.50;;;;;;7383361;19;20906;-53
2022/07/26 07:59:50;;;;;;;3.70;1.23;;;28.10;45.50;;;;;;7380218;19;20980;-52
2022/07/26 08:02:20;;;;;;;2.33;1.20;;;28.20;45.00;;;;;;7381087;19;20376;-52
2022/07/26 08:04:49;;;;;;;2.07;1.10;;;28.40;44.20;;;;;;7383271;19;20372;-53
2022/07/26 08:07:19;;;;;;;3.60;1.20;;;28.70;44.20;;;;;;7380710;19;20913;-54
2022/07/26 08:09:51;;;;;;;1.67;0.90;;;28.90;43.10;;;;;;7380875;19;20429;-52
2022/07/26 08:12:20;;;;;;;1.43;0.80;;;28.90;43.50;;;;;;7378074;19;20372;-53
2022/07/26 08:14:50;;;;;;;2.10;0.80;;;28.70;43.20;;;;;;7381910;19;20379;-54
2022/07/26 08:17:21;;;;;;;1.73;0.97;;;28.50;44.10;;;;;;7379927;19;20368;-54
2022/07/26 08:19:51;;;;;;;3.23;1.00;;;28.60;44.50;;;;;;7382005;19;20372;-54
2022/07/26 08:22:20;;;;;;;2.87;1.30;;;28.70;43.80;;;;;;7376080;19;20411;-54
2022/07/26 08:24:52;;;;;;;3.20;1.20;;;28.90;43.30;;;;;;7382946;19;20388;-54
2022/07/26 08:27:22;;;;;;;2.47;1.30;;;29.10;42.80;;;;;;7379815;19;20720;-53
2022/07/26 08:29:54;;;;;;;1.83;0.90;;;29.10;42.70;;;;;;7379537;19;20372;-53
2022/07/26 08:32:24;;;;;;;2.03;0.83;;;29.00;42.90;;;;;;7381760;19;20368;-53
2022/07/26 08:34:53;;;;;;;1.67;1.00;;;28.70;42.80;;;;;;7379334;19;21020;-53
2022/07/26 08:37:22;;;;;;;2.40;1.43;;;28.30;43.30;;;;;;7381992;19;20372;-53
2022/07/26 08:39:55;;;;;;;3.70;1.10;;;28.20;43.40;;;;;;7380594;19;20376;-53
2022/07/26 08:42:24;;;;;;;5.70;1.10;;;28.30;43.40;;;;;;7381306;19;20947;-54
2022/07/26 08:44:54;;;;;;;3.63;1.20;;;28.60;43.50;;;;;;7377914;19;20388;-52
2022/07/26 08:47:24;;;;;;;1.67;0.80;;;28.90;42.40;;;;;;7377247;19;20364;-53
2022/07/26 08:49:54;;;;;;;2.77;1.10;;;29.10;42.10;;;;;;7377791;19;20391;-53
2022/07/26 08:52:23;;;;;;;1.47;1.10;;;29.40;41.60;;;;;;7376587;19;20376;-52
2022/07/26 08:54:58;;;;;;;2.57;0.90;;;29.60;41.00;;;;;;7379388;19;20395;-53
2022/07/26 08:57:28;;;;;;;2.70;1.50;;;29.70;40.60;;;;;;7380549;19;20394;-53
2022/07/26 09:00:16;;;;;;;3.03;1.23;;;29.60;40.80;;;;;;7384188;19;20970;-53
2022/07/26 09:02:49;;;;;;;1.20;0.70;;;29.50;40.70;;;;;;7389656;19;20372;-53
2022/07/26 09:05:21;;;;;;;1.77;0.80;;;29.60;41.00;;;;;;7386540;19;20714;-53
2022/07/26 09:07:50;;;;;;;2.20;0.93;;;29.70;40.80;;;;;;7383546;19;20476;-53
2022/07/26 09:10:25;;;;;;;1.63;1.07;;;29.50;40.40;;;;;;7385282;19;20376;-53
2022/07/26 09:12:56;;;;;;;1.90;1.07;;;29.50;40.60;;;;;;7385350;19;20368;-53
2022/07/26 09:15:28;;;;;;;1.50;1.00;;;29.20;40.90;;;;;;7383644;19;20717;-53
2022/07/26 09:18:00;;;;;;;3.27;1.20;;;29.10;41.20;;;;;;7388006;19;20384;-53
2022/07/26 09:20:31;;;;;;;4.07;1.00;;;29.00;41.20;;;;;;7388243;19;21037;-53
2022/07/26 09:23:03;;;;;;;3.70;1.10;;;29.10;41.50;;;;;;7385588;19;20384;-52
2022/07/26 09:25:38;;;;;;;4.33;1.23;;;29.40;40.70;;;;;;7388225;19;20412;-53
2022/07/26 09:28:24;;;;;;;3.13;1.10;;;29.70;40.20;;;;;;7385724;19;20379;-53
2022/07/26 09:30:54;;;;;;;3.07;0.90;;;30.40;39.40;;;;;;7383440;19;20812;-53
2022/07/26 09:33:24;;;;;;;3.67;1.70;;;30.60;38.70;;;;;;7386978;19;20817;-53
2022/07/26 09:36:04;;;;;;;2.00;1.00;;;31.00;38.00;;;;;;7388192;19;20461;-53
2022/07/26 09:38:42;;;;;;;1.33;0.60;;;31.60;37.30;;;;;;7382674;19;20372;-53
2022/07/26 09:41:26;;;;;;;2.13;1.07;;;31.90;36.40;;;;;;7388093;19;20375;-52
2022/07/26 09:43:57;;;;;;;3.03;1.40;;;31.90;36.50;;;;;;7381769;19;20379;-52
2022/07/26 09:46:27;;;;;;;1.83;1.03;;;31.60;36.70;;;;;;7385290;19;20493;-52
2022/07/26 09:48:59;;;;;;;1.13;1.00;;;31.70;36.80;;;;;;7385521;19;20484;-53
2022/07/26 09:51:40;;;;;;;1.70;0.90;;;32.00;35.70;;;;;;7381981;19;20399;-52
2022/07/26 09:54:10;;;;;;;2.70;2.20;;;31.90;35.80;;;;;;7384058;19;20376;-52
2022/07/26 09:56:53;;;;;;;2.63;1.40;;;31.40;36.70;;;;;;7384151;19;20407;-52
2022/07/26 09:59:25;;;;;;;2.60;1.40;;;31.40;37.50;;;;;;7385595;19;20732;-53
2022/07/26 10:01:57;;;;;;;2.33;0.90;;;32.00;37.00;;;;;;7383426;19;20950;-53
2022/07/26 10:04:29;;;;;;;2.70;1.47;;;33.10;35.80;;;;;;7385059;19;21035;-53
2022/07/26 10:07:01;;;;;;;2.37;1.20;;;33.80;35.00;;;;;;7385150;19;20399;-53
2022/07/26 10:09:38;;;;;;;6.20;1.03;;;33.80;34.40;;;;;;7383943;19;20376;-53
2022/07/26 10:12:14;;;;;;;2.30;0.83;;;33.40;34.70;;;;;;7383370;19;20980;-53
2022/07/26 10:14:46;;;;;;;2.00;1.10;;;33.60;36.00;;;;;;7385962;19;20375;-53
2022/07/26 10:17:42;;;;;;;2.03;1.00;;;33.80;34.10;;;;;;7381798;19;20372;-54
2022/07/26 10:20:13;;;;;;;1.33;0.97;;;34.50;34.20;;;;;;7386837;19;20372;-53
2022/07/26 10:22:49;;;;;;;2.13;1.50;;;34.50;33.30;;;;;;7385189;19;21053;-53
2022/07/26 10:25:49;;;;;;;2.60;1.00;;;34.10;34.10;;;;;;7384079;19;20777;-52
2022/07/26 10:28:32;;;;;;;1.53;0.97;;;35.10;33.20;;;;;;7370209;19;20749;-53
2022/07/26 10:31:28;;;;;;;2.30;1.23;;;37.50;30.70;;;;;;7375127;19;20791;-54
2022/07/26 10:33:58;;;;;;;2.30;1.10;;;39.40;29.10;;;;;;7372541;19;20772;-54
2022/07/26 10:36:33;;;;;;;1.30;0.97;;;39.60;28.40;;;;;;7372907;19;20404;-54
2022/07/26 10:39:09;;;;;;;1.50;0.80;;;39.20;28.80;;;;;;7378076;19;20383;-54
2022/07/26 10:41:41;;;;;;;2.33;1.07;;;39.90;28.60;;;;;;7374193;19;20384;-54
2022/07/26 10:44:25;;;;;;;3.83;3.27;;;39.70;27.90;;;;;;7377150;19;20409;-54
2022/07/26 10:47:14;;;;;;;2.90;2.30;;;39.50;28.00;;;;;;7377285;19;20380;-53
2022/07/26 10:49:46;;;;;;;1.70;0.90;;;40.30;27.50;;;;;;7381124;19;20477;-54
2022/07/26 10:52:17;;;;;;;1.87;1.17;;;41.40;26.40;;;;;;7381539;19;20416;-54
2022/07/26 10:55:11;;;;;;;1.90;1.07;;;41.30;26.30;;;;;;7384204;19;20372;-53
2022/07/26 10:57:47;;;;;;;2.07;1.13;;;39.60;28.80;;;;;;7380750;19;20372;-53
2022/07/26 11:00:24;;;;;;;1.97;1.70;;;37.30;30.80;;;;;;7381843;19;20419;-54
2022/07/26 11:03:00;;;;;;;2.70;1.37;;;36.40;33.00;;;;;;7383630;19;20380;-54
2022/07/26 11:05:33;;;;;;;2.33;0.90;;;37.20;32.10;;;;;;7379455;19;20384;-54
2022/07/26 11:08:09;;;;;;;1.97;1.30;;;38.50;30.40;;;;;;7380503;19;20379;-54
2022/07/26 11:10:44;;;;;;;2.80;1.30;;;39.90;29.30;;;;;;7376640;19;20952;-54
2022/07/26 11:13:19;;;;;;;2.47;1.20;;;41.10;28.10;;;;;;7377941;19;20917;-54
2022/07/26 11:15:53;;;;;;;2.13;0.90;;;41.60;27.80;;;;;;7379054;19;20431;-55
2022/07/26 11:18:29;;;;;;;1.07;0.80;;;41.30;27.00;;;;;;7371593;19;20376;-55
2022/07/26 11:21:16;;;;;;;1.30;0.87;;;40.60;27.30;;;;;;7374377;19;22149;-55
2022/07/26 11:23:49;;;;;;;2.13;1.70;;;41.10;27.00;;;;;;7380352;19;20380;-54
2022/07/26 11:26:22;;;;;;;2.73;1.37;;;40.70;26.90;;;;;;7373287;19;21066;-54
2022/07/26 11:29:00;;;;;;;2.47;1.00;;;40.30;26.90;;;;;;7376198;19;20368;-55
2022/07/26 11:31:40;;;;;;;1.93;0.90;;;40.60;26.40;;;;;;7367615;19;20392;-55
2022/07/26 11:34:19;;;;;;;1.53;0.80;;;41.40;26.40;;;;;;7378913;19;20382;-53
2022/07/26 11:36:49;;;;;;;1.67;1.00;;;41.40;25.80;;;;;;7371122;19;20481;-54
2022/07/26 11:39:23;;;;;;;1.70;0.80;;;40.90;26.00;;;;;;7370136;19;20703;-55
2022/07/26 11:41:58;;;;;;;2.87;1.07;;;39.90;26.70;;;;;;7363413;19;20482;-55
2022/07/26 11:44:28;;;;;;;2.20;1.17;;;39.80;26.80;;;;;;7371438;19;20368;-54
2022/07/26 11:47:01;;;;;;;1.03;0.73;;;40.70;27.40;;;;;;7378019;19;20380;-55
2022/07/26 11:49:32;;;;;;;0.90;0.70;;;41.80;26.50;;;;;;7369041;19;20368;-56
2022/07/26 11:52:06;;;;;;;1.10;0.80;;;42.60;25.00;;;;;;7373493;19;20407;-55
2022/07/26 11:54:46;;;;;;;1.53;0.80;;;43.20;25.10;;;;;;7373126;19;20390;-55
2022/07/26 11:57:16;;;;;;;1.40;0.90;;;42.80;24.50;;;;;;7365514;19;20408;-55
2022/07/26 11:59:49;;;;;;;1.23;0.70;;;41.60;25.70;;;;;;7371830;19;20532;-55
2022/07/26 12:02:24;;;;;;;2.20;0.80;;;41.30;26.10;;;;;;7373831;19;20385;-54
2022/07/26 12:05:14;;;;;;;1.30;0.67;;;40.20;25.90;;;;;;7370132;19;21039;-55
2022/07/26 12:07:59;;;;;;;2.00;0.80;;;38.50;27.20;;;;;;7371428;19;20387;-56
2022/07/26 12:10:31;;;;;;;1.63;0.80;;;39.00;27.50;;;;;;7379808;19;20877;-56
2022/07/26 12:13:12;;;;;;;1.90;0.77;;;40.20;26.00;;;;;;7368745;19;20413;-55
2022/07/26 12:15:48;;;;;;;1.23;0.70;;;41.20;24.90;;;;;;7377493;19;20732;-56
2022/07/26 12:18:27;;;;;;;2.23;0.60;;;40.60;25.60;;;;;;7382235;19;20384;-55
2022/07/26 12:21:03;;;;;;;2.73;0.90;;;41.20;25.00;;;;;;7363571;19;21106;-56
2022/07/26 12:23:43;;;;;;;1.93;1.13;;;42.10;23.90;;;;;;7377596;19;20364;-55
2022/07/26 12:26:23;;;;;;;2.23;1.00;;;42.30;23.70;;;;;;7376006;19;20380;-55
2022/07/26 12:28:55;;;;;;;1.53;0.80;;;42.80;23.70;;;;;;7369439;19;20379;-55
2022/07/26 12:31:29;;;;;;;1.97;0.87;;;43.10;23.40;;;;;;7365963;19;20376;-55
2022/07/26 12:34:02;;;;;;;4.60;1.10;;;42.20;23.70;;;;;;7372106;19;20374;-55
2022/07/26 12:36:35;;;;;;;3.77;1.30;;;40.40;24.60;;;;;;7385109;19;20717;-55
2022/07/26 12:39:06;;;;;;;1.40;0.67;;;40.00;25.40;;;;;;7387548;19;20376;-55
2022/07/26 12:41:39;;;;;;;1.00;0.60;;;40.70;24.80;;;;;;7387737;19;20410;-55
2022/07/26 12:44:11;;;;;;;1.00;0.70;;;41.30;24.50;;;;;;7384673;19;20372;-56
2022/07/26 12:46:43;;;;;;;1.70;0.57;;;41.70;23.90;;;;;;7382208;19;20368;-56
2022/07/26 12:49:18;;;;;;;1.43;0.70;;;42.30;23.30;;;;;;7390517;19;20372;-55
2022/07/26 12:51:49;;;;;;;2.93;0.70;;;42.20;23.70;;;;;;7382817;19;20400;-55
2022/07/26 12:54:19;;;;;;;6.10;0.80;;;42.40;23.20;;;;;;7381403;19;20484;-55
2022/07/26 12:56:50;;;;;;;1.50;0.90;;;42.60;23.00;;;;;;7378810;19;20416;-55
2022/07/26 12:59:20;;;;;;;1.60;0.90;;;42.90;22.80;;;;;;7385245;19;20402;-55
2022/07/26 13:01:49;;;;;;;2.50;1.40;;;42.40;22.80;;;;;;7385368;19;20383;-55
2022/07/26 13:04:22;;;;;;;2.10;0.90;;;40.60;23.90;;;;;;7374385;19;20384;-55
2022/07/26 13:06:51;;;;;;;1.77;0.87;;;38.50;25.50;;;;;;7375220;19;20447;-54
2022/07/26 13:09:23;;;;;;;2.30;0.80;;;37.20;26.30;;;;;;7385499;19;20388;-55
2022/07/26 13:11:53;;;;;;;0.80;0.60;;;35.90;27.10;;;;;;7383081;19;20913;-54
2022/07/26 13:14:26;;;;;;;2.90;0.80;;;35.10;29.10;;;;;;7382442;19;20455;-54
2022/07/26 13:16:55;;;;;;;1.30;0.83;;;34.50;29.00;;;;;;7360787;19;20531;-53
2022/07/26 13:19:27;;;;;;;2.30;1.23;;;33.50;29.30;;;;;;7376736;19;20845;-53